Time;durP1;ratioP1;P1;durP2;ratioP2;P2;SDS_P1;SDS_P2;PMS_P1;PMS_P2;Temp;Humidity;BMP_temperature;BMP_pressure;BME280_temperature;BME280_humidity;BME280_pressure;Samples;Min_cycle;Max_cycle;Signal;HPM_P1;HPM_P2
2023/06/21 00:00:18;;;;;;;7.03;2.70;;;;;;;20.22;100.00;95728.25;1038688;28;20036;-73
2023/06/21 00:00:49;;;;;;;12.57;4.60;;;;;;;20.21;100.00;95718.72;1044518;28;20502;-76
2023/06/21 00:01:19;;;;;;;9.90;3.30;;;;;;;20.22;100.00;95722.94;1035790;28;20041;-73
2023/06/21 00:01:50;;;;;;;9.45;3.47;;;;;;;20.22;100.00;95728.25;1040740;28;20104;-75
2023/06/21 00:02:20;;;;;;;9.02;3.63;;;;;;;20.22;100.00;95722.94;1041005;28;20405;-75
2023/06/21 00:02:51;;;;;;;11.35;2.78;;;;;;;20.22;100.00;95723.75;1040517;28;20059;-76
2023/06/21 00:03:21;;;;;;;13.30;3.80;;;;;;;20.21;100.00;95718.72;1044885;28;20506;-74
2023/06/21 00:03:52;;;;;;;13.77;3.53;;;;;;;20.21;100.00;95721.38;1043343;28;20051;-74
2023/06/21 00:04:22;;;;;;;13.18;3.65;;;;;;;20.22;100.00;95717.59;1042615;28;20063;-73
2023/06/21 00:04:55;;;;;;;8.05;3.75;;;;;;;20.22;100.00;95714.94;1042693;28;20028;-75
2023/06/21 00:05:26;;;;;;;12.40;3.20;;;;;;;20.15;100.00;95707.47;1034962;28;20037;-74
2023/06/21 00:05:56;;;;;;;11.70;3.40;;;;;;;20.15;100.00;95714.69;1034856;28;20113;-74
2023/06/21 00:06:31;;;;;;;9.55;2.97;;;;;;;20.09;100.00;95713.34;1034380;28;20539;-75
2023/06/21 00:07:01;;;;;;;7.15;3.30;;;;;;;20.10;100.00;95714.88;1040129;28;20038;-76
2023/06/21 00:07:32;;;;;;;10.32;3.75;;;;;;;20.06;100.00;95706.00;1038929;28;20033;-74
2023/06/21 00:08:03;;;;;;;12.85;3.42;;;;;;;20.10;100.00;95720.22;1030251;28;20030;-74
2023/06/21 00:08:33;;;;;;;10.48;4.00;;;;;;;20.10;100.00;95714.88;1038521;28;20022;-75
2023/06/21 00:09:04;;;;;;;8.57;3.30;;;;;;;20.10;100.00;95720.22;1038471;28;20029;-77
2023/06/21 00:09:34;;;;;;;12.13;3.72;;;;;;;20.06;100.00;95714.75;1046846;28;20038;-74
2023/06/21 00:10:07;;;;;;;7.70;3.35;;;;;;;20.06;100.00;95721.97;1038204;28;20025;-75
2023/06/21 00:10:38;;;;;;;10.38;3.35;;;;;;;20.06;100.00;95725.41;1038609;28;20097;-74
2023/06/21 00:11:08;;;;;;;12.82;3.67;;;;;;;20.04;100.00;95722.28;1033935;28;20014;-75
2023/06/21 00:11:39;;;;;;;14.55;4.03;;;;;;;20.00;100.00;95718.72;1031491;28;20081;-74
2023/06/21 00:12:09;;;;;;;13.07;4.22;;;;;;;20.01;100.00;95718.38;1042443;28;20013;-74
2023/06/21 00:12:40;;;;;;;9.73;3.90;;;;;;;19.99;100.00;95717.94;1038497;28;20049;-74
2023/06/21 00:13:10;;;;;;;7.90;3.50;;;;;;;19.98;100.00;95718.25;1038119;28;20642;-74
2023/06/21 00:13:41;;;;;;;9.75;3.80;;;;;;;19.98;100.00;95720.91;1038594;28;20022;-74
2023/06/21 00:14:11;;;;;;;13.73;3.78;;;;;;;19.90;100.00;95713.75;1042639;28;20468;-75
2023/06/21 00:14:42;;;;;;;9.30;3.28;;;;;;;19.91;100.00;95712.66;1042561;28;20025;-75
2023/06/21 00:15:12;;;;;;;9.68;3.45;;;;;;;19.93;100.00;95716.56;1038616;28;20025;-74
2023/06/21 00:15:42;;;;;;;9.95;3.72;;;;;;;19.87;100.00;95707.19;1031230;28;20374;-73
2023/06/21 00:16:14;;;;;;;10.30;3.33;;;;;;;19.92;100.00;95716.88;1028042;28;20026;-76
2023/06/21 00:16:45;;;;;;;9.77;3.10;;;;;;;19.91;100.00;95716.09;1035481;28;20045;-75
2023/06/21 00:17:16;;;;;;;6.55;3.20;;;;;;;19.83;100.00;95708.94;1035861;28;20069;-74
2023/06/21 00:17:47;;;;;;;6.65;3.58;;;;;;;19.86;100.00;95715.50;1037411;28;20360;-75
2023/06/21 00:18:17;;;;;;;8.40;3.30;;;;;;;19.90;100.00;95727.84;1035122;28;20042;-75
2023/06/21 00:18:48;;;;;;;9.02;3.50;;;;;;;19.89;100.00;95720.97;1043253;28;20021;-75
2023/06/21 00:19:18;;;;;;;9.07;3.42;;;;;;;19.89;100.00;95720.19;1039352;28;20021;-74
2023/06/21 00:19:48;;;;;;;10.80;3.00;;;;;;;19.88;100.00;95719.38;1038497;28;20815;-74
2023/06/21 00:20:19;;;;;;;11.75;3.35;;;;;;;19.87;100.00;95717.06;1039413;28;20034;-74
2023/06/21 00:20:49;;;;;;;9.15;2.85;;;;;;;19.77;100.00;95712.88;1031208;28;20026;-74
2023/06/21 00:21:20;;;;;;;12.45;3.50;;;;;;;19.86;100.00;95724.28;1026841;28;20032;-73
2023/06/21 00:21:51;;;;;;;15.90;4.10;;;;;;;19.84;100.00;95721.16;1034461;28;20581;-74
2023/06/21 00:22:24;;;;;;;11.98;3.30;;;;;;;19.84;100.00;95718.47;1035178;28;20033;-73
2023/06/21 00:22:58;;;;;;;10.65;4.53;;;;;;;19.80;100.00;95706.13;1035732;28;20108;-75
2023/06/21 00:23:28;;;;;;;11.32;2.97;;;;;;;19.82;100.00;95720.69;1041793;28;20340;-74
2023/06/21 00:24:02;;;;;;;10.35;3.80;;;;;;;19.82;100.00;95715.38;1036159;28;20064;-73
2023/06/21 00:24:33;;;;;;;10.73;3.30;;;;;;;19.81;100.00;95713.78;1034909;28;20037;-74
2023/06/21 00:25:04;;;;;;;13.82;4.28;;;;;;;19.78;100.00;95714.44;1036114;28;20030;-74
2023/06/21 00:25:35;;;;;;;11.38;3.67;;;;;;;19.78;100.00;95720.56;1044089;28;20647;-74
2023/06/21 00:26:05;;;;;;;11.45;3.10;;;;;;;19.77;100.00;95718.97;1040300;28;20566;-76
2023/06/21 00:26:36;;;;;;;7.97;4.43;;;;;;;19.72;100.00;95705.09;1043216;28;20029;-74
2023/06/21 00:27:06;;;;;;;11.05;3.58;;;;;;;19.78;100.00;95715.25;1034834;28;20042;-75
2023/06/21 00:27:37;;;;;;;13.68;3.38;;;;;;;19.79;100.00;95718.69;1031345;28;20737;-73
2023/06/21 00:28:07;;;;;;;11.68;3.60;;;;;;;19.79;100.00;95721.34;1031246;28;20034;-74
2023/06/21 00:28:38;;;;;;;8.32;3.28;;;;;;;19.77;100.00;95723.53;1031889;28;20423;-75
2023/06/21 00:29:08;;;;;;;10.93;3.05;;;;;;;19.72;100.00;95721.06;1031111;28;20591;-72
2023/06/21 00:29:38;;;;;;;11.13;3.30;;;;;;;19.71;100.00;95722.94;1043337;28;20020;-75
2023/06/21 00:30:09;;;;;;;10.88;4.15;;;;;;;19.72;100.00;95721.06;1044889;28;20028;-74
2023/06/21 00:30:40;;;;;;;10.32;4.03;;;;;;;19.71;100.00;95724.81;1039358;28;20120;-75
2023/06/21 00:31:10;;;;;;;12.43;3.60;;;;;;;19.74;100.00;95726.84;1038603;28;20029;-74
2023/06/21 00:31:41;;;;;;;9.43;3.47;;;;;;;19.76;100.00;95732.63;1043349;28;20033;-74
2023/06/21 00:32:11;;;;;;;9.63;3.00;;;;;;;19.73;100.00;95728.72;1047581;28;20169;-74
2023/06/21 00:32:41;;;;;;;9.88;3.15;;;;;;;19.75;100.00;95728.38;1043465;28;20025;-75
2023/06/21 00:33:12;;;;;;;8.50;3.53;;;;;;;19.74;100.00;95724.94;1043077;28;20029;-75
2023/06/21 00:33:42;;;;;;;15.55;4.28;;;;;;;19.73;100.00;95723.41;1039168;28;20156;-74
2023/06/21 00:34:13;;;;;;;10.88;4.43;;;;;;;19.69;100.00;95730.47;1039392;28;20479;-74
2023/06/21 00:34:46;;;;;;;9.52;2.90;;;;;;;19.67;100.00;95722.00;1047509;28;20060;-73
2023/06/21 00:35:17;;;;;;;15.73;4.00;;;;;;;19.69;100.00;95727.03;1055679;28;20031;-73
2023/06/21 00:35:48;;;;;;;12.45;3.47;;;;;;;19.70;100.00;95726.69;1051731;28;20047;-74
2023/06/21 00:36:18;;;;;;;13.65;4.10;;;;;;;19.62;100.00;95716.84;1043468;28;20060;-74
2023/06/21 00:36:48;;;;;;;9.38;3.30;;;;;;;19.69;100.00;95727.03;1034566;28;20033;-74
2023/06/21 00:37:19;;;;;;;9.98;3.08;;;;;;;19.65;100.00;95715.44;1030935;28;20441;-73
2023/06/21 00:37:49;;;;;;;12.70;3.22;;;;;;;19.70;100.00;95723.25;1027057;28;20142;-74
2023/06/21 00:38:20;;;;;;;13.05;3.90;;;;;;;19.70;100.00;95720.59;1027373;28;20038;-75
2023/06/21 00:38:50;;;;;;;10.48;3.72;;;;;;;19.65;100.00;95710.91;1038512;28;20029;-75
2023/06/21 00:39:21;;;;;;;12.68;3.30;;;;;;;19.70;100.00;95707.28;1039294;28;20494;-74
2023/06/21 00:39:52;;;;;;;14.40;4.93;;;;;;;19.75;100.00;95720.41;1043447;28;20513;-73
2023/06/21 00:40:22;;;;;;;12.68;3.40;;;;;;;19.75;100.00;95715.06;1043277;28;20036;-75
2023/06/21 00:40:53;;;;;;;10.25;3.65;;;;;;;19.79;100.00;95718.69;1035379;28;20038;-74
2023/06/21 00:41:23;;;;;;;13.48;3.88;;;;;;;19.78;100.00;95717.09;1038741;28;20056;-74
2023/06/21 00:41:54;;;;;;;8.80;3.80;;;;;;;19.77;100.00;95720.88;1035012;28;20034;-75
2023/06/21 00:42:27;;;;;;;12.00;3.33;;;;;;;19.74;100.00;95711.63;1035060;28;20372;-75
2023/06/21 00:43:00;;;;;;;12.52;2.97;;;;;;;19.75;100.00;95709.75;1035248;28;20108;-71
2023/06/21 00:43:31;;;;;;;15.85;3.40;;;;;;;19.74;100.00;95713.53;1043045;28;20040;-75
2023/06/21 00:44:04;;;;;;;10.27;3.22;;;;;;;19.75;100.00;95721.22;1039156;28;20021;-72
2023/06/21 00:44:35;;;;;;;8.95;3.25;;;;;;;19.60;100.00;95691.66;1043378;28;20029;-75
2023/06/21 00:45:07;;;;;;;12.35;3.22;;;;;;;19.75;100.00;95715.88;1043216;28;20375;-75
2023/06/21 00:45:45;;;;;;;8.52;3.13;;;;;;;19.76;100.00;95719.31;1046370;28;20094;-73
2023/06/21 00:46:16;;;;;;;11.63;3.20;;;;;;;19.75;100.00;95720.41;1043377;28;20058;-74
2023/06/21 00:46:46;;;;;;;11.30;3.60;;;;;;;19.69;100.00;95713.72;1047341;28;20725;-74
2023/06/21 00:47:18;;;;;;;11.60;3.63;;;;;;;19.69;100.00;95713.72;1043160;28;20159;-74
2023/06/21 00:47:49;;;;;;;13.32;2.88;;;;;;;19.74;100.00;95724.19;1043172;28;20649;-74
2023/06/21 00:48:20;;;;;;;13.68;3.55;;;;;;;19.74;100.00;95718.84;1035149;28;20034;-75
2023/06/21 00:48:50;;;;;;;11.45;3.10;;;;;;;19.76;100.00;95724.66;1039072;28;20486;-75
2023/06/21 00:49:21;;;;;;;11.82;3.10;;;;;;;19.77;100.00;95723.53;1035420;28;20030;-73
2023/06/21 00:49:51;;;;;;;10.27;3.00;;;;;;;19.78;100.00;95725.09;1030809;28;20057;-74
2023/06/21 00:50:22;;;;;;;10.25;3.28;;;;;;;19.77;100.00;95718.22;1035019;28;20030;-73
2023/06/21 00:50:52;;;;;;;11.70;2.95;;;;;;;19.79;100.00;95721.34;1035094;28;20025;-74
2023/06/21 00:51:23;;;;;;;9.20;3.35;;;;;;;19.75;100.00;95718.53;1038446;28;20029;-74
2023/06/21 00:51:57;;;;;;;9.48;2.88;;;;;;;19.74;100.00;95710.88;1034914;28;20021;-74
2023/06/21 00:52:27;;;;;;;9.45;3.00;;;;;;;19.80;100.00;95720.22;1030798;28;20026;-73
2023/06/21 00:52:58;;;;;;;11.32;2.90;;;;;;;19.81;100.00;95718.34;1039175;28;20025;-73
2023/06/21 00:53:29;;;;;;;18.85;3.10;;;;;;;19.77;100.00;95712.88;1039158;28;20462;-73
2023/06/21 00:53:59;;;;;;;9.80;3.28;;;;;;;19.74;100.00;95706.31;1039017;28;20033;-75
2023/06/21 00:54:32;;;;;;;9.52;3.28;;;;;;;19.80;100.00;95712.25;1039088;28;20026;-73
2023/06/21 00:55:04;;;;;;;11.65;3.22;;;;;;;19.77;100.00;95715.53;1039332;28;20029;-74
2023/06/21 00:55:35;;;;;;;8.68;2.85;;;;;;;19.73;100.00;95711.97;1043962;28;20028;-75
2023/06/21 00:56:05;;;;;;;7.75;2.63;;;;;;;19.75;100.00;95715.06;1043191;28;20024;-75
2023/06/21 00:56:36;;;;;;;9.50;2.83;;;;;;;19.79;100.00;95716.03;1047522;28;20082;-73
2023/06/21 00:57:07;;;;;;;10.73;2.95;;;;;;;19.80;100.00;95717.56;1041755;28;20103;-74
2023/06/21 00:57:37;;;;;;;10.68;3.10;;;;;;;19.78;100.00;95717.09;1039249;28;20024;-71
2023/06/21 00:58:11;;;;;;;14.98;3.75;;;;;;;19.81;100.00;95715.69;1034946;28;20037;-73
2023/06/21 00:58:41;;;;;;;10.38;3.42;;;;;;;19.76;100.00;95712.09;1031052;28;20034;-73
2023/06/21 00:59:13;;;;;;;12.68;3.58;;;;;;;19.72;100.00;95711.19;1037802;28;20412;-73
2023/06/21 00:59:44;;;;;;;11.32;3.33;;;;;;;19.78;100.00;95717.91;1036503;28;20052;-73
2023/06/21 01:00:20;;;;;;;7.22;2.83;;;;;;;19.77;100.00;95718.97;1043530;28;20485;-74
2023/06/21 01:00:51;;;;;;;9.50;3.30;;;;;;;19.75;100.00;95712.41;1042018;28;20671;-77
2023/06/21 01:01:21;;;;;;;11.02;3.03;;;;;;;19.72;100.00;95705.09;1034841;28;20116;-73
2023/06/21 01:01:52;;;;;;;13.20;3.22;;;;;;;19.76;100.00;95711.34;1026141;28;20515;-72
2023/06/21 01:02:22;;;;;;;12.32;3.08;;;;;;;19.73;100.00;95720.72;1027976;28;20085;-74
2023/06/21 01:02:54;;;;;;;6.30;2.72;;;;;;;19.71;100.00;95709.63;1043389;28;20073;-75
2023/06/21 01:03:26;;;;;;;14.63;3.38;;;;;;;19.65;100.00;95704.78;1043497;28;20040;-73
2023/06/21 01:03:57;;;;;;;12.40;3.15;;;;;;;19.70;100.00;95723.25;1035222;28;20022;-77
2023/06/21 01:04:29;;;;;;;14.80;3.55;;;;;;;19.55;100.00;95689.97;1043037;28;20013;-73
2023/06/21 01:05:03;;;;;;;10.55;3.05;;;;;;;19.68;100.00;95706.81;1043290;28;20025;-72
2023/06/21 01:05:34;;;;;;;11.25;3.60;;;;;;;19.63;100.00;95707.78;1035009;28;20016;-74
2023/06/21 01:06:37;;;;;;;8.05;2.40;;;;;;;19.69;100.00;95714.50;1046528;28;20023;-73
2023/06/21 01:07:17;;;;;;;13.20;4.28;;;;;;;19.69;100.00;95721.72;1044441;28;20167;-74
2023/06/21 01:08:15;;;;;;;21.38;4.00;;;;;;;19.68;100.00;95723.56;1046900;28;20114;-74
2023/06/21 01:08:56;;;;;;;11.95;3.15;;;;;;;19.66;100.00;95719.69;1044015;28;20570;-76
2023/06/21 01:09:50;;;;;;;12.88;4.00;;;;;;;19.60;100.00;95718.28;1048128;28;20020;-75
2023/06/21 01:10:41;;;;;;;13.50;3.20;;;;;;;19.67;100.00;95724.69;1047044;28;20028;-74
2023/06/21 01:11:17;;;;;;;13.20;2.80;;;;;;;19.68;100.00;95725.44;1037454;28;20049;-74
2023/06/21 01:11:58;;;;;;;9.85;3.15;;;;;;;19.65;100.00;95726.91;1040648;28;20760;-75
2023/06/21 01:12:53;;;;;;;12.55;3.05;;;;;;;19.69;100.00;95721.72;1046728;28;20504;-73
2023/06/21 01:13:35;;;;;;;11.63;3.63;;;;;;;19.67;100.00;95721.25;1047029;28;20074;-75
2023/06/21 01:14:11;;;;;;;6.88;2.85;;;;;;;19.66;100.00;95723.13;1042762;28;20024;-75
2023/06/21 01:14:47;;;;;;;6.95;2.80;;;;;;;19.64;100.00;95732.53;1042848;28;20075;-75
2023/06/21 01:15:19;;;;;;;9.48;3.67;;;;;;;19.62;100.00;95730.16;1038824;28;20025;-74
2023/06/21 01:15:52;;;;;;;13.07;2.92;;;;;;;19.67;100.00;95731.88;1038362;28;20438;-72
2023/06/21 01:16:23;;;;;;;8.93;2.83;;;;;;;19.65;100.00;95736.75;1034824;28;20177;-74
2023/06/21 01:16:54;;;;;;;11.48;2.80;;;;;;;19.62;100.00;95732.06;1034586;28;20025;-74
2023/06/21 01:17:25;;;;;;;18.58;3.88;;;;;;;19.65;100.00;95736.75;1034755;28;20010;-73
2023/06/21 01:17:57;;;;;;;10.43;3.42;;;;;;;19.66;100.00;95739.09;1030697;28;20452;-75
2023/06/21 01:18:30;;;;;;;7.03;3.05;;;;;;;19.68;100.00;95741.44;1042515;28;20016;-73
2023/06/21 01:19:01;;;;;;;15.48;3.72;;;;;;;19.71;100.00;95740.78;1043027;28;20029;-76
2023/06/21 01:19:43;;;;;;;10.18;3.60;;;;;;;19.69;100.00;95735.03;1043002;28;20039;-75
2023/06/21 01:20:14;;;;;;;13.90;3.45;;;;;;;19.67;100.00;95735.31;1034613;28;20806;-73
2023/06/21 01:20:48;;;;;;;9.40;3.10;;;;;;;19.69;100.00;95738.47;1032382;28;20101;-74
2023/06/21 01:21:22;;;;;;;13.93;3.20;;;;;;;19.65;100.00;95737.53;1038120;28;20028;-76
2023/06/21 01:21:53;;;;;;;15.02;3.50;;;;;;;19.65;100.00;95731.41;1042718;28;20116;-75
2023/06/21 01:22:34;;;;;;;9.65;3.13;;;;;;;19.64;100.00;95729.88;1051429;28;20554;-74
2023/06/21 01:23:46;;;;;;;8.00;3.45;;;;;;;19.64;100.00;95737.84;1042798;28;20016;-74
2023/06/21 01:24:16;;;;;;;;;;;;;;;19.63;100.00;95738.94;1040458;28;20029;-74
2023/06/21 01:25:01;;;;;;;13.25;2.97;;;;;;;19.58;100.00;95739.09;1042704;28;19913;-72
2023/06/21 01:25:50;;;;;;;11.40;3.20;;;;;;;19.58;100.00;95744.41;1034756;28;20108;-75
2023/06/21 01:26:47;;;;;;;9.30;3.00;;;;;;;19.52;100.00;95741.94;1039026;28;20562;-74
2023/06/21 01:27:23;;;;;;;9.90;3.10;;;;;;;19.53;100.00;95742.72;1041335;28;20346;-73
2023/06/21 01:28:02;;;;;;;9.20;3.33;;;;;;;19.52;100.00;95741.94;1037559;28;20021;-76
2023/06/21 01:28:38;;;;;;;12.18;2.97;;;;;;;19.54;100.00;95737.06;1041200;28;20029;-73
2023/06/21 01:29:11;;;;;;;8.25;3.50;;;;;;;19.53;100.00;95738.19;1042869;28;20029;-74
2023/06/21 01:29:44;;;;;;;13.57;3.83;;;;;;;19.50;100.00;95736.16;1041182;28;20044;-75
2023/06/21 01:30:14;;;;;;;10.30;3.40;;;;;;;19.51;100.00;95739.59;1042684;28;20099;-73
2023/06/21 01:30:45;;;;;;;14.25;3.65;;;;;;;19.49;100.00;95739.16;1047007;28;20177;-73
2023/06/21 01:31:16;;;;;;;13.10;3.35;;;;;;;19.45;100.00;95733.69;1037923;28;20397;-74
2023/06/21 01:31:46;;;;;;;11.27;3.38;;;;;;;19.45;100.00;95739.00;1034544;28;20530;-75
2023/06/21 01:32:17;;;;;;;8.90;2.70;;;;;;;19.44;100.00;95731.31;1042925;28;20051;-72
2023/06/21 01:32:53;;;;;;;13.38;3.80;;;;;;;19.45;100.00;95741.66;1038718;28;20075;-73
2023/06/21 01:33:26;;;;;;;13.43;3.65;;;;;;;19.45;100.00;95738.19;1039036;28;20040;-73
2023/06/21 01:33:57;;;;;;;15.80;3.70;;;;;;;19.43;100.00;95740.41;1038821;28;20092;-74
2023/06/21 01:34:29;;;;;;;10.80;3.15;;;;;;;19.40;100.00;95741.06;1038729;28;20029;-75
2023/06/21 01:35:01;;;;;;;13.43;3.70;;;;;;;19.39;100.00;95742.16;1038754;28;20017;-73
2023/06/21 01:35:31;;;;;;;15.00;3.13;;;;;;;19.38;100.00;95746.69;1038689;28;20071;-74
2023/06/21 01:36:04;;;;;;;10.65;3.58;;;;;;;19.28;100.00;95731.06;1043035;28;20403;-73
2023/06/21 01:36:35;;;;;;;13.90;3.42;;;;;;;19.43;100.00;95756.38;1035322;28;20038;-74
2023/06/21 01:37:08;;;;;;;11.80;4.45;;;;;;;19.41;100.00;95747.94;1038495;28;20026;-73
2023/06/21 01:37:42;;;;;;;9.40;3.25;;;;;;;19.45;100.00;95759.50;1026711;28;20114;-73
2023/06/21 01:38:13;;;;;;;8.77;3.95;;;;;;;19.45;100.00;95748.84;1030640;28;20173;-74
2023/06/21 01:38:44;;;;;;;9.77;3.65;;;;;;;19.47;100.00;95747.44;1035705;28;20029;-74
2023/06/21 01:39:15;;;;;;;12.57;3.70;;;;;;;19.46;100.00;95751.19;1036955;28;20084;-74
2023/06/21 01:39:45;;;;;;;13.68;4.30;;;;;;;19.46;100.00;95750.44;1042822;28;20045;-73
2023/06/21 01:40:16;;;;;;;8.32;3.45;;;;;;;19.44;100.00;95742.75;1043081;28;20032;-74
2023/06/21 01:40:46;;;;;;;13.13;4.15;;;;;;;19.44;100.00;95748.06;1043129;28;20024;-73
2023/06/21 01:41:18;;;;;;;11.63;3.67;;;;;;;19.44;100.00;95750.72;1042157;28;20509;-74
2023/06/21 01:41:48;;;;;;;11.00;3.45;;;;;;;19.43;100.00;95751.84;1038692;28;20135;-74
2023/06/21 01:42:19;;;;;;;11.80;3.15;;;;;;;19.45;100.00;95754.16;1042458;28;20465;-73
2023/06/21 01:42:49;;;;;;;22.30;5.43;;;;;;;19.44;100.00;95758.72;1043179;28;20028;-74
2023/06/21 01:43:20;;;;;;;8.52;3.35;;;;;;;19.41;100.00;95753.25;1055406;28;20771;-72
2023/06/21 01:43:50;;;;;;;12.93;4.00;;;;;;;19.37;100.00;95755.75;1046822;28;20024;-75
2023/06/21 01:44:21;;;;;;;8.25;3.78;;;;;;;19.40;100.00;95760.47;1031640;28;20496;-74
2023/06/21 01:44:51;;;;;;;12.32;4.28;;;;;;;19.44;100.00;95757.94;1040863;28;20021;-74
2023/06/21 01:45:23;;;;;;;11.20;4.25;;;;;;;19.46;100.00;95755.75;1039298;28;20026;-74
2023/06/21 01:45:53;;;;;;;15.48;3.42;;;;;;;19.47;100.00;95755.41;1032254;28;20519;-73
2023/06/21 01:46:25;;;;;;;10.20;3.95;;;;;;;19.46;100.00;95753.88;1044272;28;20033;-76
2023/06/21 01:46:55;;;;;;;10.18;4.03;;;;;;;19.48;100.00;95748.22;1039800;28;20026;-73
2023/06/21 01:47:26;;;;;;;12.43;3.65;;;;;;;19.51;100.00;95750.22;1042688;28;20033;-73
2023/06/21 01:47:56;;;;;;;8.65;3.40;;;;;;;19.45;100.00;95746.19;1038894;28;20072;-74
2023/06/21 01:48:27;;;;;;;15.18;3.83;;;;;;;19.46;100.00;95745.88;1039006;28;20030;-73
2023/06/21 01:49:00;;;;;;;7.30;3.65;;;;;;;19.44;100.00;95745.41;1038802;28;20096;-73
2023/06/21 01:49:30;;;;;;;11.88;4.10;;;;;;;19.45;100.00;95749.66;1034660;28;20029;-73
2023/06/21 01:50:02;;;;;;;12.35;3.67;;;;;;;19.46;100.00;95755.75;1038771;28;20037;-74
2023/06/21 01:50:33;;;;;;;9.18;3.45;;;;;;;19.48;100.00;95757.00;1040166;28;20021;-73
2023/06/21 01:51:04;;;;;;;12.88;3.65;;;;;;;19.42;100.00;95744.19;1038140;28;20029;-73
2023/06/21 01:51:38;;;;;;;15.27;4.38;;;;;;;19.41;100.00;95759.34;1042809;28;20418;-75
2023/06/21 01:52:09;;;;;;;8.80;3.53;;;;;;;19.36;100.00;95756.88;1037547;28;20017;-73
2023/06/21 01:52:40;;;;;;;15.15;3.50;;;;;;;19.34;100.00;95753.75;1026688;28;20353;-74
2023/06/21 01:53:13;;;;;;;11.85;3.53;;;;;;;19.33;100.00;95760.16;1038562;28;20071;-71
2023/06/21 01:53:44;;;;;;;21.52;5.00;;;;;;;19.29;100.00;95753.94;1038772;28;20469;-78
2023/06/21 01:54:15;;;;;;;12.10;3.97;;;;;;;19.27;100.00;95748.13;1038599;28;20013;-74
2023/06/21 01:54:46;;;;;;;15.77;4.68;;;;;;;19.27;100.00;95758.78;1038054;28;20021;-73
2023/06/21 01:55:17;;;;;;;11.10;3.70;;;;;;;19.22;100.00;95750.97;1042758;28;20017;-76
2023/06/21 01:55:49;;;;;;;26.60;5.10;;;;;;;19.24;100.00;95764.72;1038529;28;20112;-76
2023/06/21 01:56:19;;;;;;;18.85;3.97;;;;;;;19.21;100.00;95762.69;1038622;28;20526;-73
2023/06/21 01:56:50;;;;;;;24.20;4.45;;;;;;;19.21;100.00;95765.34;1037974;28;20018;-72
2023/06/21 01:57:21;;;;;;;13.93;3.67;;;;;;;19.18;100.00;95764.13;1037633;28;20026;-74
2023/06/21 01:57:52;;;;;;;17.73;4.25;;;;;;;19.16;100.00;95758.34;1042732;28;20414;-73
2023/06/21 01:58:23;;;;;;;7.85;3.92;;;;;;;19.15;100.00;95755.97;1038729;28;20040;-75
2023/06/21 01:58:53;;;;;;;12.70;4.13;;;;;;;19.13;100.00;95756.31;1038533;28;20475;-73
2023/06/21 01:59:24;;;;;;;13.32;3.97;;;;;;;19.02;100.00;95742.56;1038719;28;20469;-74
2023/06/21 01:59:54;;;;;;;10.50;4.30;;;;;;;19.14;100.00;95762.41;1046921;28;20024;-73
2023/06/21 02:00:26;;;;;;;11.40;3.75;;;;;;;19.11;100.00;95761.16;1038616;28;20028;-74
2023/06/21 02:00:57;;;;;;;12.52;4.00;;;;;;;19.05;100.00;95755.22;1038478;28;20507;-72
2023/06/21 02:01:28;;;;;;;7.72;3.35;;;;;;;19.06;100.00;95771.97;1042097;28;20021;-74
2023/06/21 02:01:59;;;;;;;11.98;3.72;;;;;;;19.02;100.00;95769.16;1042635;28;20013;-73
2023/06/21 02:02:30;;;;;;;14.18;4.10;;;;;;;19.01;100.00;95767.59;1038377;28;20017;-74
2023/06/21 02:03:04;;;;;;;12.10;3.47;;;;;;;18.96;100.00;95759.78;1042948;28;20068;-74
2023/06/21 02:03:38;;;;;;;12.60;3.72;;;;;;;18.98;100.00;95768.22;1034624;28;20024;-74
2023/06/21 02:04:08;;;;;;;11.57;4.28;;;;;;;18.95;100.00;95763.53;1034474;28;20078;-75
2023/06/21 02:04:39;;;;;;;15.25;4.22;;;;;;;18.89;100.00;95754.16;1042543;28;20025;-75
2023/06/21 02:05:09;;;;;;;13.93;3.80;;;;;;;18.91;100.00;95764.47;1038599;28;20025;-74
2023/06/21 02:05:40;;;;;;;8.75;3.50;;;;;;;18.89;100.00;95764.03;1034339;28;20018;-73
2023/06/21 02:06:11;;;;;;;19.33;5.10;;;;;;;18.86;100.00;95760.09;1030650;28;20085;-73
2023/06/21 02:06:41;;;;;;;18.83;4.30;;;;;;;18.89;100.00;95769.34;1038196;28;20041;-75
2023/06/21 02:07:13;;;;;;;14.57;3.95;;;;;;;18.87;100.00;95768.84;1042623;28;20029;-74
2023/06/21 02:07:45;;;;;;;12.25;4.05;;;;;;;18.82;100.00;95769.81;1005114;28;1081378;-73
2023/06/21 02:08:16;;;;;;;12.00;3.80;;;;;;;18.84;100.00;95770.25;1034936;28;20087;-75
2023/06/21 02:08:48;;;;;;;12.30;4.05;;;;;;;18.83;100.00;95782.78;1034560;28;20034;-73
2023/06/21 02:09:20;;;;;;;11.05;4.10;;;;;;;18.80;100.00;95777.31;1036866;28;20038;-74
2023/06/21 02:09:50;;;;;;;8.60;3.45;;;;;;;18.77;100.00;95778.72;1038846;28;20075;-73
2023/06/21 02:10:21;;;;;;;14.68;3.97;;;;;;;18.76;100.00;95771.84;1034685;28;20817;-74
2023/06/21 02:10:51;;;;;;;9.43;3.92;;;;;;;18.75;100.00;95782.81;1035333;28;20063;-75
2023/06/21 02:11:22;;;;;;;7.55;3.55;;;;;;;18.73;100.00;95779.66;1037256;28;20025;-75
2023/06/21 02:11:52;;;;;;;10.02;3.60;;;;;;;18.68;100.00;95774.47;1047052;28;20082;-73
2023/06/21 02:12:23;;;;;;;12.00;4.50;;;;;;;18.69;100.00;95776.03;1034795;28;20029;-72
2023/06/21 02:12:53;;;;;;;8.27;3.38;;;;;;;18.70;100.00;95774.94;1042549;28;20556;-76
2023/06/21 02:13:26;;;;;;;11.80;3.50;;;;;;;18.71;100.00;95776.50;1030717;28;20447;-74
2023/06/21 02:13:56;;;;;;;14.30;3.70;;;;;;;18.71;100.00;95779.16;1034792;28;20033;-74
2023/06/21 02:14:27;;;;;;;10.75;4.30;;;;;;;18.64;100.00;95769.00;1038627;28;20060;-74
2023/06/21 02:14:58;;;;;;;12.23;4.45;;;;;;;18.69;100.00;95776.81;1038770;28;20246;-74
2023/06/21 02:15:28;;;;;;;12.10;4.30;;;;;;;18.65;100.00;95777.78;1034659;28;20407;-74
2023/06/21 02:15:59;;;;;;;10.40;3.83;;;;;;;18.67;100.00;95783.53;1042789;28;20090;-74
2023/06/21 02:16:30;;;;;;;13.00;4.03;;;;;;;18.58;100.00;95779.00;1042844;28;20032;-75
2023/06/21 02:17:00;;;;;;;12.85;3.38;;;;;;;18.64;100.00;95794.78;1046910;28;20536;-74
2023/06/21 02:17:31;;;;;;;10.88;3.72;;;;;;;18.53;100.00;95773.06;1046917;28;20036;-73
2023/06/21 02:18:01;;;;;;;10.25;4.47;;;;;;;18.53;100.00;95776.50;1046534;28;20146;-74
2023/06/21 02:18:32;;;;;;;12.13;4.03;;;;;;;18.54;100.00;95782.59;1038827;28;20029;-73
2023/06/21 02:19:02;;;;;;;6.70;3.55;;;;;;;18.52;100.00;95777.59;1043038;28;20315;-73
2023/06/21 02:19:32;;;;;;;12.13;3.75;;;;;;;18.53;100.00;95778.38;1030486;28;20120;-73
2023/06/21 02:20:09;;;;;;;11.05;3.47;;;;;;;18.57;100.00;95787.28;1037251;28;20030;-73
2023/06/21 02:20:40;;;;;;;11.25;3.63;;;;;;;18.54;100.00;95783.41;1042922;28;20052;-74
2023/06/21 02:21:11;;;;;;;7.45;3.63;;;;;;;18.47;100.00;95780.41;1042228;28;20032;-72
2023/06/21 02:21:42;;;;;;;6.47;3.58;;;;;;;18.49;100.00;95780.88;1038845;28;20109;-74
2023/06/21 02:22:15;;;;;;;11.02;3.38;;;;;;;18.54;100.00;95786.06;1043415;28;20071;-74
2023/06/21 02:22:46;;;;;;;12.60;4.95;;;;;;;18.56;100.00;95786.50;1043986;28;20048;-73
2023/06/21 02:23:16;;;;;;;11.15;4.40;;;;;;;18.59;100.00;95787.75;1042518;28;20736;-72
2023/06/21 02:23:47;;;;;;;22.73;4.90;;;;;;;18.60;100.00;95790.09;1035019;28;20057;-74
2023/06/21 02:24:17;;;;;;;17.63;4.15;;;;;;;18.60;100.00;95791.97;1027009;28;20043;-72
2023/06/21 02:24:48;;;;;;;16.90;4.50;;;;;;;18.60;100.00;95784.00;1039120;28;20025;-74
2023/06/21 02:25:18;;;;;;;12.63;5.28;;;;;;;18.60;100.00;95787.44;1039080;28;20022;-73
2023/06/21 02:25:49;;;;;;;12.55;3.65;;;;;;;18.59;100.00;95788.53;1043009;28;20039;-74
2023/06/21 02:26:19;;;;;;;10.85;3.80;;;;;;;18.51;100.00;95780.56;1043033;28;20485;-73
2023/06/21 02:26:49;;;;;;;8.38;3.55;;;;;;;18.53;100.00;95789.78;1047363;28;20037;-75
2023/06/21 02:27:20;;;;;;;10.43;4.13;;;;;;;18.54;100.00;95787.91;1043348;28;20543;-74
2023/06/21 02:27:50;;;;;;;12.60;3.85;;;;;;;18.52;100.00;95793.53;1039198;28;20041;-75
2023/06/21 02:28:21;;;;;;;11.20;4.00;;;;;;;18.50;100.00;95790.41;1040200;28;20029;-74
2023/06/21 02:28:51;;;;;;;9.90;4.10;;;;;;;18.50;100.00;95790.41;1039405;28;20025;-73